createdAt,value
2018-08-04T09:43:23.494Z,31.80
2018-08-04T09:45:51.562Z,31.90
2018-08-04T09:48:19.593Z,32.00
2018-08-04T09:50:47.689Z,31.90
2018-08-04T09:53:15.768Z,32.00
2018-08-04T09:55:43.851Z,32.00
2018-08-04T09:58:12.990Z,32.00
2018-08-04T10:00:46.503Z,31.90
2018-08-04T10:03:14.590Z,31.90
2018-08-04T10:05:42.703Z,32.10
2018-08-04T10:08:10.778Z,32.20
2018-08-04T10:10:38.870Z,32.30
2018-08-04T10:13:06.975Z,32.30
2018-08-04T10:15:35.093Z,32.50
2018-08-04T10:18:03.151Z,32.50
2018-08-04T10:20:31.210Z,32.70
2018-08-04T10:22:59.276Z,32.70
2018-08-04T10:25:27.373Z,32.80
2018-08-04T10:27:55.470Z,32.90
2018-08-04T10:30:23.566Z,33.00
2018-08-04T10:32:51.634Z,33.10
2018-08-04T10:35:19.720Z,33.00
2018-08-04T10:37:47.806Z,33.10
2018-08-04T10:40:15.902Z,32.90
2018-08-04T10:42:44.008Z,32.80
2018-08-04T10:45:12.081Z,32.70
2018-08-04T10:47:40.144Z,32.80
2018-08-04T10:50:08.276Z,33.00
2018-08-04T10:52:37.272Z,33.00
2018-08-04T10:55:05.622Z,33.20
2018-08-04T11:00:01.588Z,33.40
2018-08-04T11:02:30.016Z,33.50
2018-08-04T11:04:58.084Z,33.50
2018-08-04T11:07:26.127Z,33.50
2018-08-04T11:09:54.248Z,33.40
2018-08-04T11:12:22.426Z,33.40
2018-08-04T11:14:50.580Z,33.40
2018-08-04T11:17:18.673Z,33.30
2018-08-04T11:19:46.791Z,33.30
2018-08-04T11:22:14.861Z,33.40
2018-08-04T11:24:42.962Z,33.40
2018-08-04T11:27:11.035Z,33.40
2018-08-04T11:29:39.183Z,33.30
2018-08-04T11:32:07.253Z,33.40
2018-08-04T11:34:35.371Z,33.30
2018-08-04T11:37:03.461Z,33.20
2018-08-04T11:39:31.555Z,33.10
2018-08-04T11:41:59.696Z,33.10
2018-08-04T11:44:27.783Z,33.20
2018-08-04T11:46:55.888Z,33.40
2018-08-04T11:49:24.019Z,33.40
2018-08-04T11:51:52.113Z,33.40
2018-08-04T11:54:20.261Z,33.60
2018-08-04T11:56:48.372Z,33.60
2018-08-04T11:59:16.411Z,33.70
2018-08-04T12:01:44.492Z,33.60
2018-08-04T12:04:12.583Z,33.80
2018-08-04T12:06:40.671Z,33.80
2018-08-04T12:09:10.915Z,33.90
2018-08-04T12:11:38.996Z,33.70
2018-08-04T12:14:07.626Z,33.90
2018-08-04T12:16:36.750Z,33.90
2018-08-04T12:19:05.057Z,34.10
2018-08-04T12:21:33.186Z,34.20
2018-08-04T12:24:01.304Z,34.20
2018-08-04T12:26:29.399Z,34.20
2018-08-04T12:28:57.457Z,34.10
2018-08-04T12:31:25.872Z,33.90
2018-08-04T12:33:54.066Z,33.90
2018-08-04T12:36:22.216Z,33.90
2018-08-04T12:38:50.322Z,34.00
2018-08-04T12:41:18.399Z,34.00
2018-08-04T12:43:46.595Z,34.00
2018-08-04T12:46:14.686Z,33.90
2018-08-04T12:48:42.763Z,33.90
2018-08-04T12:51:10.863Z,33.90
2018-08-04T12:53:38.946Z,33.90
2018-08-04T12:56:07.093Z,33.80
2018-08-04T12:58:35.191Z,33.90
2018-08-04T13:01:03.276Z,33.80
2018-08-04T13:03:31.439Z,33.90
2018-08-04T13:05:59.546Z,34.00
2018-08-04T13:08:27.604Z,34.10
2018-08-04T13:10:55.678Z,34.10
2018-08-04T13:13:23.768Z,33.90
2018-08-04T13:15:51.849Z,33.80
2018-08-04T13:18:19.915Z,33.90
2018-08-04T13:20:47.991Z,34.00
2018-08-04T13:23:16.044Z,34.00
2018-08-04T13:25:44.123Z,33.90
2018-08-04T13:28:12.199Z,33.90
2018-08-04T13:30:40.325Z,33.80
2018-08-04T13:33:08.419Z,33.70
2018-08-04T13:35:36.537Z,33.50
2018-08-04T13:38:04.642Z,33.50
2018-08-04T13:40:33.230Z,33.30
2018-08-04T13:45:29.264Z,32.90
2018-08-04T13:47:57.441Z,32.80
2018-08-04T13:50:25.583Z,32.70
2018-08-04T13:52:53.588Z,32.60
2018-08-04T13:55:21.648Z,32.50
2018-08-04T13:57:49.750Z,32.60
2018-08-04T14:00:17.816Z,32.70
2018-08-04T14:02:45.931Z,32.80
2018-08-04T14:05:14.044Z,32.90
2018-08-04T14:07:42.177Z,32.80
2018-08-04T14:10:10.306Z,32.70
2018-08-04T14:15:06.312Z,32.90
2018-08-04T14:17:34.483Z,33.00
2018-08-04T14:22:30.429Z,33.20
2018-08-04T14:24:58.493Z,33.20
2018-08-04T14:27:26.595Z,33.30
2018-08-04T14:29:54.695Z,33.30
2018-08-04T14:32:22.796Z,33.20
2018-08-04T14:34:50.897Z,33.10
2018-08-04T14:37:19.112Z,33.10
2018-08-04T14:39:47.200Z,33.10
2018-08-04T14:42:15.349Z,33.10
2018-08-04T14:44:43.476Z,33.10
2018-08-04T14:47:11.583Z,33.20
2018-08-04T14:49:39.692Z,33.20
2018-08-04T14:52:07.734Z,33.10
2018-08-04T14:54:35.801Z,33.00
2018-08-04T14:57:03.900Z,33.00
2018-08-04T15:01:59.963Z,33.00
2018-08-04T15:04:28.118Z,33.00
2018-08-04T15:06:56.312Z,32.90
2018-08-04T15:09:24.443Z,33.00
2018-08-04T15:11:52.591Z,32.90
2018-08-04T15:14:20.680Z,33.00
2018-08-04T15:16:48.803Z,33.00
2018-08-04T15:19:16.909Z,32.90
2018-08-04T15:21:45.007Z,33.00
2018-08-04T15:24:13.123Z,33.00
2018-08-04T15:26:41.220Z,33.00
2018-08-04T15:29:09.321Z,33.00
2018-08-04T15:31:37.363Z,33.00
2018-08-04T15:34:05.529Z,33.00
2018-08-04T15:36:33.589Z,32.90
2018-08-04T15:39:01.676Z,32.80
2018-08-04T15:41:29.801Z,32.80
2018-08-04T15:43:58.005Z,32.80
2018-08-04T15:48:54.093Z,32.70
2018-08-04T15:51:22.147Z,32.50
2018-08-04T15:53:50.257Z,32.40
2018-08-04T15:56:18.366Z,32.30
2018-08-04T15:58:46.497Z,32.20
2018-08-04T16:01:14.533Z,32.20
2018-08-04T16:03:42.636Z,32.00
2018-08-04T16:06:10.756Z,32.00
2018-08-04T16:08:39.076Z,31.90
2018-08-04T16:11:07.330Z,31.90
2018-08-04T16:13:35.421Z,31.90
2018-08-04T16:16:03.506Z,31.90
2018-08-04T16:18:31.611Z,31.90
2018-08-04T16:20:59.721Z,31.80
2018-08-04T16:23:27.797Z,31.70
2018-08-04T16:25:55.879Z,31.50
2018-08-04T16:28:23.992Z,31.50
2018-08-04T16:30:52.096Z,31.40
2018-08-04T16:33:20.179Z,31.40
2018-08-04T16:38:16.184Z,31.30
2018-08-04T16:40:44.275Z,31.30
2018-08-04T16:43:12.347Z,31.30
2018-08-04T16:45:40.427Z,31.30
2018-08-04T16:50:36.423Z,31.20
2018-08-04T16:53:04.571Z,31.20
2018-08-04T16:55:32.812Z,31.20
2018-08-04T16:58:00.946Z,31.20
2018-08-04T17:00:29.089Z,31.20
2018-08-04T17:02:57.208Z,31.20
2018-08-04T17:05:25.319Z,31.10
2018-08-04T17:07:53.450Z,31.00
2018-08-04T17:10:21.547Z,30.90
2018-08-04T17:12:49.631Z,30.70
2018-08-04T17:15:17.802Z,30.60
2018-08-04T17:17:45.885Z,30.50
2018-08-04T17:20:13.980Z,30.40
2018-08-04T17:22:42.075Z,30.30
2018-08-04T17:25:10.172Z,30.20
2018-08-04T17:27:38.259Z,30.10
2018-08-04T17:30:06.566Z,30.00
2018-08-04T17:32:34.692Z,29.90
2018-08-04T17:35:02.778Z,29.80
2018-08-04T17:37:30.931Z,29.70
2018-08-04T17:39:58.968Z,29.70
2018-08-04T17:42:27.054Z,29.70
2018-08-04T17:44:55.151Z,29.60
2018-08-04T17:47:23.324Z,29.60
2018-08-04T17:49:51.418Z,29.50
2018-08-04T17:52:19.595Z,29.50
2018-08-04T17:54:47.688Z,29.40
2018-08-04T17:57:15.852Z,29.40
2018-08-04T17:59:43.923Z,29.30
2018-08-04T18:02:12.004Z,29.30
2018-08-04T18:04:40.112Z,29.20
2018-08-04T18:07:08.203Z,29.10
2018-08-04T18:09:36.323Z,29.00
2018-08-04T18:12:04.418Z,29.00
2018-08-04T18:14:32.514Z,28.90
2018-08-04T18:17:00.992Z,28.80
2018-08-04T18:19:29.088Z,28.70
2018-08-04T18:21:57.195Z,28.70
2018-08-04T18:24:25.283Z,28.60
2018-08-04T18:26:53.661Z,28.50
2018-08-04T18:29:21.775Z,28.50
2018-08-04T18:34:17.887Z,28.40
2018-08-04T18:36:46.021Z,28.30
2018-08-04T18:39:14.131Z,28.20
2018-08-04T18:44:10.195Z,28.10
2018-08-04T18:46:38.254Z,28.10
2018-08-04T18:49:06.443Z,28.00
2018-08-04T18:51:34.627Z,28.00
2018-08-04T18:54:02.788Z,27.90
2018-08-04T18:56:30.851Z,27.90
2018-08-04T18:58:58.940Z,27.80
2018-08-04T19:01:27.098Z,27.80
2018-08-04T19:03:55.435Z,27.70
2018-08-04T19:06:23.609Z,27.70
2018-08-04T19:08:51.690Z,27.60
2018-08-04T19:11:19.803Z,27.60
2018-08-04T19:13:47.903Z,27.50
2018-08-04T19:16:16.940Z,27.50
2018-08-04T19:18:45.739Z,27.40
2018-08-04T19:21:13.878Z,27.30
2018-08-04T19:23:42.072Z,27.20
2018-08-04T19:26:10.180Z,27.10
2018-08-04T19:28:38.365Z,27.10
2018-08-04T19:31:06.420Z,26.90
2018-08-04T19:33:34.836Z,26.90
2018-08-04T19:36:02.922Z,26.80
2018-08-04T19:38:31.058Z,26.60
2018-08-04T19:40:59.124Z,26.60
2018-08-04T19:45:55.104Z,26.40
2018-08-04T19:48:23.350Z,26.30
2018-08-04T19:50:51.473Z,26.30
2018-08-04T19:53:19.571Z,26.20
2018-08-04T19:55:47.667Z,26.10
2018-08-04T19:58:15.723Z,26.10
2018-08-04T20:00:43.840Z,26.10
2018-08-04T20:03:11.920Z,26.10
2018-08-04T20:05:40.024Z,26.10
2018-08-04T20:08:08.189Z,25.90
2018-08-04T20:10:36.515Z,25.90
2018-08-04T20:13:04.821Z,25.90
2018-08-04T20:15:32.943Z,25.80
2018-08-04T20:18:01.263Z,25.80
2018-08-04T20:20:29.370Z,25.70
2018-08-04T20:22:57.479Z,25.70
2018-08-04T20:25:25.606Z,25.70
2018-08-04T20:27:53.731Z,25.70
2018-08-04T20:30:21.868Z,25.70
2018-08-04T20:32:49.992Z,25.60
2018-08-04T20:35:18.148Z,25.60
2018-08-04T20:40:14.191Z,25.50
2018-08-04T20:42:42.333Z,25.50
2018-08-04T20:45:10.425Z,25.50
2018-08-04T20:47:38.620Z,25.60
2018-08-04T20:50:06.708Z,25.50
2018-08-04T20:52:34.900Z,25.60
2018-08-04T20:55:02.992Z,25.50
2018-08-04T20:57:31.117Z,25.50
2018-08-04T21:02:27.244Z,25.40
2018-08-04T21:04:55.368Z,25.40
2018-08-04T21:07:23.478Z,25.30
2018-08-04T21:09:51.824Z,25.30
2018-08-04T21:12:19.951Z,25.30
2018-08-04T21:14:48.033Z,25.20
2018-08-04T21:17:16.094Z,25.20
2018-08-04T21:19:44.168Z,25.20
2018-08-04T21:22:12.266Z,25.10
2018-08-04T21:24:40.395Z,25.10
2018-08-04T21:27:08.447Z,25.10
2018-08-04T21:29:36.521Z,25.10
2018-08-04T21:32:04.602Z,25.10
2018-08-04T21:34:32.724Z,25.00
2018-08-04T21:37:00.812Z,25.00
2018-08-04T21:39:28.925Z,25.00
2018-08-04T21:41:57.019Z,24.90
2018-08-04T21:44:25.112Z,24.90
2018-08-04T21:46:53.219Z,24.90
2018-08-04T21:49:21.480Z,24.80
2018-08-04T21:51:50.697Z,24.80
2018-08-04T21:54:19.917Z,24.80
2018-08-04T21:56:47.642Z,24.80
2018-08-04T21:59:15.726Z,24.70
2018-08-04T22:01:49.221Z,24.70
2018-08-04T22:04:17.336Z,24.60
2018-08-04T22:07:55.012Z,24.60
2018-08-04T22:10:23.111Z,24.70
2018-08-04T22:12:51.246Z,24.60
2018-08-04T22:15:19.356Z,24.60
2018-08-04T22:17:47.538Z,24.60
2018-08-04T22:20:16.980Z,24.60
2018-08-04T22:25:18.347Z,24.50
2018-08-04T22:27:46.480Z,24.50
2018-08-04T22:30:15.707Z,24.50
2018-08-04T22:32:44.419Z,24.50
2018-08-04T22:35:12.556Z,24.40
2018-08-04T22:37:41.081Z,24.40
2018-08-04T22:40:10.196Z,24.30
2018-08-04T22:42:38.656Z,24.30
2018-08-04T22:45:49.638Z,24.30
2018-08-04T22:48:17.716Z,24.20
2018-08-04T22:50:46.060Z,24.20
2018-08-04T22:53:14.277Z,24.20
2018-08-04T22:55:42.878Z,24.20
2018-08-04T22:58:11.536Z,24.20
2018-08-04T23:00:40.374Z,24.20
2018-08-04T23:03:08.504Z,24.10
2018-08-04T23:05:36.977Z,24.10
2018-08-04T23:08:05.215Z,24.10
2018-08-04T23:10:33.344Z,24.10
2018-08-04T23:13:01.479Z,24.10
2018-08-04T23:15:29.887Z,24.10
2018-08-04T23:17:58.359Z,24.10
2018-08-04T23:20:27.048Z,24.10
2018-08-04T23:22:55.144Z,24.00
2018-08-04T23:25:23.238Z,23.90
2018-08-04T23:27:52.320Z,23.90
2018-08-04T23:30:21.123Z,23.90
2018-08-04T23:32:49.842Z,23.80
2018-08-04T23:35:17.911Z,23.80
2018-08-04T23:37:46.145Z,23.90
2018-08-04T23:40:14.235Z,24.00
2018-08-04T23:42:42.357Z,24.00
2018-08-04T23:45:10.420Z,24.00
2018-08-04T23:47:38.515Z,24.00
2018-08-04T23:50:06.646Z,23.90
2018-08-04T23:52:34.738Z,23.90
2018-08-04T23:55:02.807Z,23.80
2018-08-04T23:57:31.098Z,23.70
2018-08-04T23:59:59.210Z,23.70
